sensor_id;sensor_type;location;lat;lon;timestamp;P1;durP1;ratioP1;P2;durP2;ratioP2
68273;SDS011;55104;47.356;19.448;2023-08-06T00:02:00;22.07;;;9.03;;
68273;SDS011;55104;47.356;19.448;2023-08-06T00:05:02;18.60;;;8.55;;
68273;SDS011;55104;47.356;19.448;2023-08-06T00:08:04;17.45;;;9.38;;
68273;SDS011;55104;47.356;19.448;2023-08-06T00:11:06;18.02;;;10.02;;
68273;SDS011;55104;47.356;19.448;2023-08-06T00:14:09;19.80;;;10.23;;
68273;SDS011;55104;47.356;19.448;2023-08-06T00:17:11;18.60;;;9.57;;
68273;SDS011;55104;47.356;19.448;2023-08-06T00:20:13;18.77;;;9.25;;
68273;SDS011;55104;47.356;19.448;2023-08-06T00:23:16;19.33;;;9.20;;
68273;SDS011;55104;47.356;19.448;2023-08-06T00:26:19;18.98;;;8.85;;
68273;SDS011;55104;47.356;19.448;2023-08-06T00:29:21;16.52;;;8.63;;
68273;SDS011;55104;47.356;19.448;2023-08-06T00:32:23;19.73;;;9.10;;
68273;SDS011;55104;47.356;19.448;2023-08-06T00:35:26;21.10;;;9.43;;
68273;SDS011;55104;47.356;19.448;2023-08-06T00:38:28;19.25;;;9.02;;
68273;SDS011;55104;47.356;19.448;2023-08-06T00:41:30;17.33;;;9.00;;
68273;SDS011;55104;47.356;19.448;2023-08-06T00:44:32;18.92;;;8.07;;
68273;SDS011;55104;47.356;19.448;2023-08-06T00:47:35;20.03;;;8.97;;
68273;SDS011;55104;47.356;19.448;2023-08-06T00:50:37;20.67;;;8.75;;
68273;SDS011;55104;47.356;19.448;2023-08-06T00:53:39;20.38;;;9.18;;
68273;SDS011;55104;47.356;19.448;2023-08-06T00:56:43;18.70;;;9.57;;
68273;SDS011;55104;47.356;19.448;2023-08-06T00:59:45;21.65;;;9.10;;
68273;SDS011;55104;47.356;19.448;2023-08-06T01:02:48;18.23;;;9.13;;
68273;SDS011;55104;47.356;19.448;2023-08-06T01:05:50;19.38;;;9.77;;
68273;SDS011;55104;47.356;19.448;2023-08-06T01:08:57;18.70;;;8.93;;
68273;SDS011;55104;47.356;19.448;2023-08-06T01:12:05;19.33;;;9.23;;
68273;SDS011;55104;47.356;19.448;2023-08-06T01:15:18;18.45;;;9.52;;
68273;SDS011;55104;47.356;19.448;2023-08-06T01:18:26;16.63;;;9.27;;
68273;SDS011;55104;47.356;19.448;2023-08-06T01:21:28;19.08;;;9.23;;
68273;SDS011;55104;47.356;19.448;2023-08-06T01:24:30;18.48;;;9.43;;
68273;SDS011;55104;47.356;19.448;2023-08-06T01:27:46;18.88;;;9.48;;
68273;SDS011;55104;47.356;19.448;2023-08-06T01:30:50;20.83;;;9.52;;
68273;SDS011;55104;47.356;19.448;2023-08-06T01:33:56;19.50;;;9.47;;
68273;SDS011;55104;47.356;19.448;2023-08-06T01:37:01;18.30;;;9.15;;
68273;SDS011;55104;47.356;19.448;2023-08-06T01:40:11;18.92;;;9.32;;
68273;SDS011;55104;47.356;19.448;2023-08-06T01:43:13;18.70;;;9.90;;
68273;SDS011;55104;47.356;19.448;2023-08-06T01:46:15;18.17;;;9.48;;
68273;SDS011;55104;47.356;19.448;2023-08-06T01:49:18;23.27;;;10.23;;
68273;SDS011;55104;47.356;19.448;2023-08-06T01:52:22;18.15;;;9.25;;
68273;SDS011;55104;47.356;19.448;2023-08-06T01:55:24;15.27;;;8.57;;
68273;SDS011;55104;47.356;19.448;2023-08-06T01:58:26;16.45;;;8.60;;
68273;SDS011;55104;47.356;19.448;2023-08-06T02:01:28;18.50;;;8.65;;
68273;SDS011;55104;47.356;19.448;2023-08-06T02:04:30;15.80;;;8.00;;
68273;SDS011;55104;47.356;19.448;2023-08-06T02:07:32;14.73;;;8.05;;
68273;SDS011;55104;47.356;19.448;2023-08-06T02:10:34;14.98;;;7.65;;
68273;SDS011;55104;47.356;19.448;2023-08-06T02:13:37;17.08;;;8.07;;
68273;SDS011;55104;47.356;19.448;2023-08-06T02:16:39;14.32;;;8.23;;
68273;SDS011;55104;47.356;19.448;2023-08-06T02:19:41;14.70;;;7.70;;
68273;SDS011;55104;47.356;19.448;2023-08-06T02:22:44;18.95;;;8.77;;
68273;SDS011;55104;47.356;19.448;2023-08-06T02:25:46;18.17;;;8.30;;
68273;SDS011;55104;47.356;19.448;2023-08-06T02:28:49;14.65;;;7.85;;
68273;SDS011;55104;47.356;19.448;2023-08-06T02:31:51;16.02;;;7.93;;
68273;SDS011;55104;47.356;19.448;2023-08-06T02:34:54;15.73;;;7.73;;
68273;SDS011;55104;47.356;19.448;2023-08-06T02:37:56;15.80;;;7.55;;
68273;SDS011;55104;47.356;19.448;2023-08-06T02:40:58;18.30;;;8.23;;
68273;SDS011;55104;47.356;19.448;2023-08-06T02:44:00;14.77;;;7.63;;
68273;SDS011;55104;47.356;19.448;2023-08-06T02:47:02;16.52;;;8.43;;
68273;SDS011;55104;47.356;19.448;2023-08-06T02:50:05;14.67;;;7.17;;
68273;SDS011;55104;47.356;19.448;2023-08-06T02:53:08;17.83;;;8.55;;
68273;SDS011;55104;47.356;19.448;2023-08-06T02:56:11;16.20;;;7.22;;
68273;SDS011;55104;47.356;19.448;2023-08-06T02:59:32;15.38;;;7.03;;
68273;SDS011;55104;47.356;19.448;2023-08-06T03:02:41;14.02;;;6.93;;
68273;SDS011;55104;47.356;19.448;2023-08-06T03:06:00;11.17;;;5.27;;
68273;SDS011;55104;47.356;19.448;2023-08-06T03:09:12;10.02;;;5.13;;
68273;SDS011;55104;47.356;19.448;2023-08-06T03:12:14;11.38;;;4.55;;
68273;SDS011;55104;47.356;19.448;2023-08-06T03:15:16;10.68;;;4.75;;
68273;SDS011;55104;47.356;19.448;2023-08-06T03:18:20;10.57;;;5.05;;
68273;SDS011;55104;47.356;19.448;2023-08-06T03:21:24;11.13;;;4.70;;
68273;SDS011;55104;47.356;19.448;2023-08-06T03:24:26;8.88;;;4.03;;
68273;SDS011;55104;47.356;19.448;2023-08-06T03:27:28;9.13;;;4.50;;
68273;SDS011;55104;47.356;19.448;2023-08-06T03:30:30;9.98;;;4.45;;
68273;SDS011;55104;47.356;19.448;2023-08-06T03:33:32;10.32;;;4.47;;
68273;SDS011;55104;47.356;19.448;2023-08-06T03:36:37;10.40;;;4.73;;
68273;SDS011;55104;47.356;19.448;2023-08-06T03:39:40;9.95;;;4.60;;
68273;SDS011;55104;47.356;19.448;2023-08-06T03:42:43;12.35;;;4.65;;
68273;SDS011;55104;47.356;19.448;2023-08-06T03:45:45;10.75;;;4.70;;
68273;SDS011;55104;47.356;19.448;2023-08-06T03:48:47;11.57;;;5.28;;
68273;SDS011;55104;47.356;19.448;2023-08-06T03:51:49;12.27;;;4.37;;
68273;SDS011;55104;47.356;19.448;2023-08-06T03:54:51;10.63;;;4.57;;
68273;SDS011;55104;47.356;19.448;2023-08-06T03:57:53;10.93;;;5.18;;
68273;SDS011;55104;47.356;19.448;2023-08-06T04:00:59;9.50;;;4.90;;
68273;SDS011;55104;47.356;19.448;2023-08-06T04:04:08;10.70;;;4.40;;
68273;SDS011;55104;47.356;19.448;2023-08-06T04:07:10;11.50;;;5.27;;
68273;SDS011;55104;47.356;19.448;2023-08-06T04:10:12;9.85;;;4.63;;
68273;SDS011;55104;47.356;19.448;2023-08-06T04:13:14;10.23;;;4.72;;
68273;SDS011;55104;47.356;19.448;2023-08-06T04:16:16;11.05;;;4.63;;
68273;SDS011;55104;47.356;19.448;2023-08-06T04:19:18;9.00;;;4.38;;
68273;SDS011;55104;47.356;19.448;2023-08-06T04:22:21;7.73;;;3.70;;
68273;SDS011;55104;47.356;19.448;2023-08-06T04:25:23;7.32;;;3.35;;
68273;SDS011;55104;47.356;19.448;2023-08-06T04:28:25;9.52;;;3.75;;
68273;SDS011;55104;47.356;19.448;2023-08-06T04:31:28;7.65;;;3.40;;
68273;SDS011;55104;47.356;19.448;2023-08-06T04:34:31;9.90;;;3.17;;
68273;SDS011;55104;47.356;19.448;2023-08-06T04:37:33;6.57;;;2.93;;
68273;SDS011;55104;47.356;19.448;2023-08-06T04:40:36;7.05;;;2.38;;
68273;SDS011;55104;47.356;19.448;2023-08-06T04:43:38;6.80;;;2.95;;
68273;SDS011;55104;47.356;19.448;2023-08-06T04:46:40;7.07;;;2.75;;
68273;SDS011;55104;47.356;19.448;2023-08-06T04:49:42;7.38;;;2.80;;
68273;SDS011;55104;47.356;19.448;2023-08-06T04:52:44;7.83;;;3.57;;
68273;SDS011;55104;47.356;19.448;2023-08-06T04:55:47;9.90;;;3.65;;
68273;SDS011;55104;47.356;19.448;2023-08-06T04:58:49;9.10;;;3.85;;
68273;SDS011;55104;47.356;19.448;2023-08-06T05:01:52;10.52;;;3.92;;
68273;SDS011;55104;47.356;19.448;2023-08-06T05:04:54;9.10;;;3.92;;
68273;SDS011;55104;47.356;19.448;2023-08-06T05:07:56;10.23;;;4.30;;
68273;SDS011;55104;47.356;19.448;2023-08-06T05:10:59;9.73;;;4.85;;
68273;SDS011;55104;47.356;19.448;2023-08-06T05:14:01;13.63;;;5.88;;
68273;SDS011;55104;47.356;19.448;2023-08-06T05:17:03;12.77;;;4.85;;
68273;SDS011;55104;47.356;19.448;2023-08-06T05:20:06;11.65;;;4.57;;
68273;SDS011;55104;47.356;19.448;2023-08-06T05:23:08;9.67;;;4.63;;
68273;SDS011;55104;47.356;19.448;2023-08-06T05:26:10;8.85;;;4.50;;
68273;SDS011;55104;47.356;19.448;2023-08-06T05:29:12;10.98;;;4.95;;
68273;SDS011;55104;47.356;19.448;2023-08-06T05:32:15;10.82;;;5.00;;
68273;SDS011;55104;47.356;19.448;2023-08-06T05:35:17;10.63;;;4.32;;
68273;SDS011;55104;47.356;19.448;2023-08-06T05:38:19;11.33;;;4.70;;
68273;SDS011;55104;47.356;19.448;2023-08-06T05:41:21;13.98;;;4.78;;
68273;SDS011;55104;47.356;19.448;2023-08-06T05:44:23;8.77;;;3.70;;
68273;SDS011;55104;47.356;19.448;2023-08-06T05:47:25;8.57;;;3.58;;
68273;SDS011;55104;47.356;19.448;2023-08-06T05:50:27;8.15;;;3.00;;
68273;SDS011;55104;47.356;19.448;2023-08-06T05:53:29;9.73;;;3.40;;
68273;SDS011;55104;47.356;19.448;2023-08-06T05:56:31;8.25;;;3.35;;
68273;SDS011;55104;47.356;19.448;2023-08-06T05:59:33;6.53;;;2.30;;
68273;SDS011;55104;47.356;19.448;2023-08-06T06:02:35;6.90;;;2.35;;
68273;SDS011;55104;47.356;19.448;2023-08-06T06:05:38;7.45;;;1.80;;
68273;SDS011;55104;47.356;19.448;2023-08-06T06:08:44;6.03;;;1.90;;
68273;SDS011;55104;47.356;19.448;2023-08-06T06:11:46;5.40;;;1.70;;
68273;SDS011;55104;47.356;19.448;2023-08-06T06:14:50;4.60;;;1.10;;
68273;SDS011;55104;47.356;19.448;2023-08-06T06:17:52;3.80;;;1.20;;
68273;SDS011;55104;47.356;19.448;2023-08-06T06:20:54;4.03;;;1.17;;
68273;SDS011;55104;47.356;19.448;2023-08-06T06:23:56;3.70;;;1.00;;
68273;SDS011;55104;47.356;19.448;2023-08-06T06:26:58;3.28;;;0.90;;
68273;SDS011;55104;47.356;19.448;2023-08-06T06:30:01;3.17;;;0.80;;
68273;SDS011;55104;47.356;19.448;2023-08-06T06:33:03;2.50;;;0.70;;
68273;SDS011;55104;47.356;19.448;2023-08-06T06:36:05;3.05;;;0.70;;
68273;SDS011;55104;47.356;19.448;2023-08-06T06:39:09;2.50;;;0.63;;
68273;SDS011;55104;47.356;19.448;2023-08-06T06:42:11;4.15;;;0.80;;
68273;SDS011;55104;47.356;19.448;2023-08-06T06:45:18;3.50;;;0.70;;
68273;SDS011;55104;47.356;19.448;2023-08-06T06:48:21;2.35;;;0.50;;
68273;SDS011;55104;47.356;19.448;2023-08-06T06:51:23;1.65;;;0.40;;
68273;SDS011;55104;47.356;19.448;2023-08-06T06:54:25;2.70;;;0.40;;
68273;SDS011;55104;47.356;19.448;2023-08-06T06:57:27;2.65;;;0.50;;
68273;SDS011;55104;47.356;19.448;2023-08-06T07:00:29;2.60;;;0.82;;
68273;SDS011;55104;47.356;19.448;2023-08-06T07:03:31;3.97;;;0.68;;
68273;SDS011;55104;47.356;19.448;2023-08-06T07:06:33;1.27;;;0.38;;
68273;SDS011;55104;47.356;19.448;2023-08-06T07:09:35;2.10;;;0.43;;
68273;SDS011;55104;47.356;19.448;2023-08-06T07:12:37;1.67;;;0.30;;
68273;SDS011;55104;47.356;19.448;2023-08-06T07:15:39;1.52;;;0.40;;
68273;SDS011;55104;47.356;19.448;2023-08-06T07:18:42;1.55;;;0.40;;
68273;SDS011;55104;47.356;19.448;2023-08-06T07:21:44;0.90;;;0.35;;
68273;SDS011;55104;47.356;19.448;2023-08-06T07:24:46;1.83;;;0.40;;
68273;SDS011;55104;47.356;19.448;2023-08-06T07:27:48;4.60;;;1.60;;
68273;SDS011;55104;47.356;19.448;2023-08-06T07:30:50;1.75;;;0.60;;
68273;SDS011;55104;47.356;19.448;2023-08-06T07:33:52;1.70;;;0.50;;
68273;SDS011;55104;47.356;19.448;2023-08-06T07:36:54;1.35;;;0.47;;
68273;SDS011;55104;47.356;19.448;2023-08-06T07:39:57;3.47;;;0.50;;
68273;SDS011;55104;47.356;19.448;2023-08-06T07:42:59;2.83;;;0.80;;
68273;SDS011;55104;47.356;19.448;2023-08-06T07:46:01;2.72;;;0.70;;
68273;SDS011;55104;47.356;19.448;2023-08-06T07:49:03;2.25;;;0.60;;
68273;SDS011;55104;47.356;19.448;2023-08-06T07:52:06;4.60;;;0.73;;
68273;SDS011;55104;47.356;19.448;2023-08-06T07:55:08;2.80;;;0.80;;
68273;SDS011;55104;47.356;19.448;2023-08-06T07:58:10;2.47;;;0.60;;
68273;SDS011;55104;47.356;19.448;2023-08-06T08:01:12;2.28;;;0.73;;
68273;SDS011;55104;47.356;19.448;2023-08-06T08:04:14;2.65;;;0.80;;
68273;SDS011;55104;47.356;19.448;2023-08-06T08:07:16;2.17;;;0.68;;
68273;SDS011;55104;47.356;19.448;2023-08-06T08:10:18;1.63;;;0.60;;
68273;SDS011;55104;47.356;19.448;2023-08-06T08:13:21;2.10;;;0.75;;
68273;SDS011;55104;47.356;19.448;2023-08-06T08:16:23;3.10;;;0.88;;
68273;SDS011;55104;47.356;19.448;2023-08-06T08:19:25;2.08;;;0.60;;
68273;SDS011;55104;47.356;19.448;2023-08-06T08:22:27;2.53;;;0.70;;
68273;SDS011;55104;47.356;19.448;2023-08-06T08:25:29;2.30;;;0.70;;
68273;SDS011;55104;47.356;19.448;2023-08-06T08:28:32;1.98;;;0.55;;
68273;SDS011;55104;47.356;19.448;2023-08-06T08:31:34;2.00;;;0.52;;
68273;SDS011;55104;47.356;19.448;2023-08-06T08:34:41;2.67;;;0.40;;
68273;SDS011;55104;47.356;19.448;2023-08-06T08:37:43;1.50;;;0.40;;
68273;SDS011;55104;47.356;19.448;2023-08-06T08:40:46;1.10;;;0.30;;
68273;SDS011;55104;47.356;19.448;2023-08-06T08:43:51;0.88;;;0.30;;
68273;SDS011;55104;47.356;19.448;2023-08-06T08:46:53;1.27;;;0.40;;
68273;SDS011;55104;47.356;19.448;2023-08-06T08:49:55;2.08;;;0.30;;
68273;SDS011;55104;47.356;19.448;2023-08-06T08:52:59;1.15;;;0.40;;
68273;SDS011;55104;47.356;19.448;2023-08-06T08:56:01;1.07;;;0.30;;
68273;SDS011;55104;47.356;19.448;2023-08-06T08:59:05;1.58;;;0.30;;
68273;SDS011;55104;47.356;19.448;2023-08-06T09:02:07;0.70;;;0.30;;
68273;SDS011;55104;47.356;19.448;2023-08-06T09:05:12;0.50;;;0.20;;
68273;SDS011;55104;47.356;19.448;2023-08-06T09:08:18;2.25;;;0.43;;
68273;SDS011;55104;47.356;19.448;2023-08-06T09:11:22;0.70;;;0.20;;
68273;SDS011;55104;47.356;19.448;2023-08-06T09:14:25;0.52;;;0.20;;
68273;SDS011;55104;47.356;19.448;2023-08-06T09:17:28;0.80;;;0.30;;
68273;SDS011;55104;47.356;19.448;2023-08-06T09:20:31;0.93;;;0.40;;
68273;SDS011;55104;47.356;19.448;2023-08-06T09:23:36;1.08;;;0.30;;
68273;SDS011;55104;47.356;19.448;2023-08-06T09:26:38;1.17;;;0.30;;
68273;SDS011;55104;47.356;19.448;2023-08-06T09:29:42;2.03;;;0.40;;
68273;SDS011;55104;47.356;19.448;2023-08-06T09:32:48;1.25;;;0.40;;
68273;SDS011;55104;47.356;19.448;2023-08-06T09:35:53;0.88;;;0.30;;
68273;SDS011;55104;47.356;19.448;2023-08-06T09:38:56;0.85;;;0.30;;
68273;SDS011;55104;47.356;19.448;2023-08-06T09:41:59;0.57;;;0.20;;
68273;SDS011;55104;47.356;19.448;2023-08-06T09:45:06;0.90;;;0.30;;
68273;SDS011;55104;47.356;19.448;2023-08-06T09:48:09;2.42;;;0.40;;
68273;SDS011;55104;47.356;19.448;2023-08-06T09:51:11;1.10;;;0.22;;
68273;SDS011;55104;47.356;19.448;2023-08-06T09:54:15;3.67;;;0.43;;
68273;SDS011;55104;47.356;19.448;2023-08-06T09:57:28;1.40;;;0.37;;
68273;SDS011;55104;47.356;19.448;2023-08-06T10:00:32;0.80;;;0.22;;
68273;SDS011;55104;47.356;19.448;2023-08-06T10:03:40;1.00;;;0.30;;
68273;SDS011;55104;47.356;19.448;2023-08-06T10:06:43;1.27;;;0.40;;
68273;SDS011;55104;47.356;19.448;2023-08-06T10:09:48;2.22;;;0.47;;
68273;SDS011;55104;47.356;19.448;2023-08-06T10:12:51;1.17;;;0.30;;
68273;SDS011;55104;47.356;19.448;2023-08-06T10:15:56;1.60;;;0.38;;
68273;SDS011;55104;47.356;19.448;2023-08-06T10:18:58;1.38;;;0.30;;
68273;SDS011;55104;47.356;19.448;2023-08-06T10:22:08;1.50;;;0.30;;
68273;SDS011;55104;47.356;19.448;2023-08-06T10:25:17;2.00;;;0.32;;
68273;SDS011;55104;47.356;19.448;2023-08-06T10:28:20;2.87;;;0.50;;
68273;SDS011;55104;47.356;19.448;2023-08-06T10:34:56;2.22;;;0.43;;
68273;SDS011;55104;47.356;19.448;2023-08-06T10:38:02;1.35;;;0.40;;
68273;SDS011;55104;47.356;19.448;2023-08-06T10:41:15;1.25;;;0.40;;
68273;SDS011;55104;47.356;19.448;2023-08-06T10:44:37;1.23;;;0.30;;
68273;SDS011;55104;47.356;19.448;2023-08-06T10:48:31;0.85;;;0.30;;
68273;SDS011;55104;47.356;19.448;2023-08-06T10:51:35;2.42;;;0.50;;
68273;SDS011;55104;47.356;19.448;2023-08-06T10:54:38;1.60;;;0.50;;
68273;SDS011;55104;47.356;19.448;2023-08-06T10:57:40;1.10;;;0.30;;
68273;SDS011;55104;47.356;19.448;2023-08-06T11:00:43;1.90;;;0.40;;
68273;SDS011;55104;47.356;19.448;2023-08-06T11:03:45;1.60;;;0.50;;
68273;SDS011;55104;47.356;19.448;2023-08-06T11:06:52;1.17;;;0.40;;
68273;SDS011;55104;47.356;19.448;2023-08-06T11:10:00;1.85;;;0.50;;
68273;SDS011;55104;47.356;19.448;2023-08-06T11:13:04;1.73;;;0.55;;
68273;SDS011;55104;47.356;19.448;2023-08-06T11:16:06;1.37;;;0.40;;
68273;SDS011;55104;47.356;19.448;2023-08-06T11:19:08;1.35;;;0.40;;
68273;SDS011;55104;47.356;19.448;2023-08-06T11:22:10;2.20;;;0.40;;
68273;SDS011;55104;47.356;19.448;2023-08-06T11:25:12;1.33;;;0.43;;
68273;SDS011;55104;47.356;19.448;2023-08-06T11:28:14;2.35;;;0.40;;
68273;SDS011;55104;47.356;19.448;2023-08-06T11:31:23;1.50;;;0.30;;
68273;SDS011;55104;47.356;19.448;2023-08-06T11:34:25;3.15;;;0.50;;
68273;SDS011;55104;47.356;19.448;2023-08-06T11:37:27;1.55;;;0.40;;
68273;SDS011;55104;47.356;19.448;2023-08-06T11:40:29;0.55;;;0.20;;
68273;SDS011;55104;47.356;19.448;2023-08-06T11:43:33;1.40;;;0.30;;
68273;SDS011;55104;47.356;19.448;2023-08-06T11:46:53;2.30;;;0.30;;
68273;SDS011;55104;47.356;19.448;2023-08-06T11:50:02;1.30;;;0.40;;
68273;SDS011;55104;47.356;19.448;2023-08-06T11:53:06;1.10;;;0.30;;
68273;SDS011;55104;47.356;19.448;2023-08-06T11:56:08;1.17;;;0.30;;
68273;SDS011;55104;47.356;19.448;2023-08-06T11:59:10;1.42;;;0.40;;
68273;SDS011;55104;47.356;19.448;2023-08-06T12:02:12;3.23;;;0.40;;
68273;SDS011;55104;47.356;19.448;2023-08-06T12:05:15;0.68;;;0.30;;
68273;SDS011;55104;47.356;19.448;2023-08-06T12:08:19;1.55;;;0.30;;
68273;SDS011;55104;47.356;19.448;2023-08-06T12:11:22;1.85;;;0.40;;
68273;SDS011;55104;47.356;19.448;2023-08-06T12:14:25;1.17;;;0.30;;
68273;SDS011;55104;47.356;19.448;2023-08-06T12:17:27;1.47;;;0.43;;
68273;SDS011;55104;47.356;19.448;2023-08-06T12:20:29;1.63;;;0.40;;
68273;SDS011;55104;47.356;19.448;2023-08-06T12:23:31;1.98;;;0.52;;
68273;SDS011;55104;47.356;19.448;2023-08-06T12:26:34;1.73;;;0.60;;
68273;SDS011;55104;47.356;19.448;2023-08-06T12:29:39;1.48;;;0.40;;
68273;SDS011;55104;47.356;19.448;2023-08-06T12:32:43;1.50;;;0.40;;
68273;SDS011;55104;47.356;19.448;2023-08-06T12:35:45;2.00;;;0.52;;
68273;SDS011;55104;47.356;19.448;2023-08-06T12:38:47;1.63;;;0.50;;
68273;SDS011;55104;47.356;19.448;2023-08-06T12:41:49;2.17;;;0.50;;
68273;SDS011;55104;47.356;19.448;2023-08-06T12:44:52;2.35;;;0.50;;
68273;SDS011;55104;47.356;19.448;2023-08-06T12:47:54;2.10;;;0.30;;
68273;SDS011;55104;47.356;19.448;2023-08-06T12:50:57;1.90;;;0.50;;
68273;SDS011;55104;47.356;19.448;2023-08-06T12:53:59;1.63;;;0.47;;
68273;SDS011;55104;47.356;19.448;2023-08-06T12:57:01;1.65;;;0.40;;
68273;SDS011;55104;47.356;19.448;2023-08-06T13:00:03;1.77;;;0.40;;
68273;SDS011;55104;47.356;19.448;2023-08-06T13:03:07;4.00;;;0.40;;
68273;SDS011;55104;47.356;19.448;2023-08-06T13:06:09;1.77;;;0.40;;
68273;SDS011;55104;47.356;19.448;2023-08-06T13:09:11;2.28;;;0.45;;
68273;SDS011;55104;47.356;19.448;2023-08-06T13:12:14;1.50;;;0.43;;
68273;SDS011;55104;47.356;19.448;2023-08-06T13:15:16;1.98;;;0.40;;
68273;SDS011;55104;47.356;19.448;2023-08-06T13:18:18;1.23;;;0.30;;
68273;SDS011;55104;47.356;19.448;2023-08-06T13:21:21;1.48;;;0.40;;
68273;SDS011;55104;47.356;19.448;2023-08-06T13:24:23;2.20;;;0.60;;
68273;SDS011;55104;47.356;19.448;2023-08-06T13:27:25;3.05;;;0.50;;
68273;SDS011;55104;47.356;19.448;2023-08-06T13:30:27;1.67;;;0.40;;
68273;SDS011;55104;47.356;19.448;2023-08-06T13:33:29;2.23;;;0.50;;
68273;SDS011;55104;47.356;19.448;2023-08-06T13:36:31;1.92;;;0.50;;
68273;SDS011;55104;47.356;19.448;2023-08-06T13:39:33;1.88;;;0.50;;
68273;SDS011;55104;47.356;19.448;2023-08-06T13:42:35;2.33;;;0.50;;
68273;SDS011;55104;47.356;19.448;2023-08-06T13:45:37;1.80;;;0.47;;
68273;SDS011;55104;47.356;19.448;2023-08-06T13:48:40;3.03;;;0.70;;
68273;SDS011;55104;47.356;19.448;2023-08-06T13:51:42;3.28;;;0.85;;
68273;SDS011;55104;47.356;19.448;2023-08-06T13:54:44;2.83;;;0.60;;
68273;SDS011;55104;47.356;19.448;2023-08-06T13:57:46;3.10;;;0.70;;
68273;SDS011;55104;47.356;19.448;2023-08-06T14:00:48;2.45;;;0.80;;
68273;SDS011;55104;47.356;19.448;2023-08-06T14:03:50;3.90;;;0.80;;
68273;SDS011;55104;47.356;19.448;2023-08-06T14:06:52;2.92;;;0.65;;
68273;SDS011;55104;47.356;19.448;2023-08-06T14:09:55;2.88;;;0.85;;
68273;SDS011;55104;47.356;19.448;2023-08-06T14:12:59;3.42;;;0.77;;
68273;SDS011;55104;47.356;19.448;2023-08-06T14:16:11;3.58;;;1.10;;
68273;SDS011;55104;47.356;19.448;2023-08-06T14:19:13;3.37;;;0.87;;
68273;SDS011;55104;47.356;19.448;2023-08-06T14:22:15;5.18;;;1.17;;
68273;SDS011;55104;47.356;19.448;2023-08-06T14:25:17;4.80;;;1.10;;
68273;SDS011;55104;47.356;19.448;2023-08-06T14:28:19;3.75;;;1.02;;
68273;SDS011;55104;47.356;19.448;2023-08-06T14:31:21;3.47;;;0.90;;
68273;SDS011;55104;47.356;19.448;2023-08-06T14:34:23;3.13;;;0.80;;
68273;SDS011;55104;47.356;19.448;2023-08-06T14:37:26;3.13;;;0.80;;
68273;SDS011;55104;47.356;19.448;2023-08-06T14:40:28;3.08;;;0.88;;
68273;SDS011;55104;47.356;19.448;2023-08-06T14:43:35;5.32;;;1.10;;
68273;SDS011;55104;47.356;19.448;2023-08-06T14:46:37;4.47;;;1.27;;
68273;SDS011;55104;47.356;19.448;2023-08-06T14:49:39;3.30;;;0.90;;
68273;SDS011;55104;47.356;19.448;2023-08-06T14:52:41;2.97;;;0.90;;
68273;SDS011;55104;47.356;19.448;2023-08-06T14:55:44;3.70;;;0.90;;
68273;SDS011;55104;47.356;19.448;2023-08-06T14:58:46;4.85;;;1.25;;
68273;SDS011;55104;47.356;19.448;2023-08-06T15:01:48;3.75;;;1.20;;
68273;SDS011;55104;47.356;19.448;2023-08-06T15:04:50;4.03;;;1.00;;
68273;SDS011;55104;47.356;19.448;2023-08-06T15:07:52;3.80;;;1.10;;
68273;SDS011;55104;47.356;19.448;2023-08-06T15:10:54;4.25;;;1.35;;
68273;SDS011;55104;47.356;19.448;2023-08-06T15:13:57;3.92;;;1.13;;
68273;SDS011;55104;47.356;19.448;2023-08-06T15:16:59;4.50;;;1.10;;
68273;SDS011;55104;47.356;19.448;2023-08-06T15:20:02;4.70;;;1.10;;
68273;SDS011;55104;47.356;19.448;2023-08-06T15:23:04;3.25;;;0.85;;
68273;SDS011;55104;47.356;19.448;2023-08-06T15:26:06;2.80;;;0.85;;
68273;SDS011;55104;47.356;19.448;2023-08-06T15:29:09;3.53;;;1.00;;
68273;SDS011;55104;47.356;19.448;2023-08-06T15:32:11;3.55;;;1.02;;
68273;SDS011;55104;47.356;19.448;2023-08-06T15:35:15;3.67;;;0.90;;
68273;SDS011;55104;47.356;19.448;2023-08-06T15:38:17;3.20;;;0.90;;
68273;SDS011;55104;47.356;19.448;2023-08-06T15:41:19;4.57;;;1.08;;
68273;SDS011;55104;47.356;19.448;2023-08-06T15:44:21;2.92;;;0.80;;
68273;SDS011;55104;47.356;19.448;2023-08-06T15:47:25;3.53;;;1.05;;
68273;SDS011;55104;47.356;19.448;2023-08-06T15:50:27;3.40;;;1.00;;
68273;SDS011;55104;47.356;19.448;2023-08-06T15:53:29;3.72;;;0.82;;
68273;SDS011;55104;47.356;19.448;2023-08-06T15:56:33;3.38;;;0.80;;
68273;SDS011;55104;47.356;19.448;2023-08-06T15:59:35;4.05;;;1.17;;
68273;SDS011;55104;47.356;19.448;2023-08-06T16:02:37;3.42;;;0.90;;
68273;SDS011;55104;47.356;19.448;2023-08-06T16:05:39;2.90;;;0.80;;
68273;SDS011;55104;47.356;19.448;2023-08-06T16:08:42;2.65;;;0.80;;
68273;SDS011;55104;47.356;19.448;2023-08-06T16:11:44;3.30;;;1.00;;
68273;SDS011;55104;47.356;19.448;2023-08-06T16:14:46;3.25;;;0.75;;
68273;SDS011;55104;47.356;19.448;2023-08-06T16:17:48;3.90;;;1.00;;
68273;SDS011;55104;47.356;19.448;2023-08-06T16:20:51;4.93;;;1.00;;
68273;SDS011;55104;47.356;19.448;2023-08-06T16:23:54;4.18;;;1.00;;
68273;SDS011;55104;47.356;19.448;2023-08-06T16:26:56;4.55;;;1.00;;
68273;SDS011;55104;47.356;19.448;2023-08-06T16:29:58;3.70;;;1.10;;
68273;SDS011;55104;47.356;19.448;2023-08-06T16:33:04;3.63;;;1.08;;
68273;SDS011;55104;47.356;19.448;2023-08-06T16:36:06;3.20;;;0.90;;
68273;SDS011;55104;47.356;19.448;2023-08-06T16:39:08;4.03;;;0.90;;
68273;SDS011;55104;47.356;19.448;2023-08-06T16:42:11;3.53;;;1.02;;
68273;SDS011;55104;47.356;19.448;2023-08-06T16:45:13;3.55;;;0.95;;
68273;SDS011;55104;47.356;19.448;2023-08-06T16:52:25;3.13;;;0.90;;
68273;SDS011;55104;47.356;19.448;2023-08-06T16:55:30;2.85;;;0.80;;
68273;SDS011;55104;47.356;19.448;2023-08-06T16:58:33;3.65;;;1.02;;
68273;SDS011;55104;47.356;19.448;2023-08-06T17:01:35;4.15;;;1.25;;
68273;SDS011;55104;47.356;19.448;2023-08-06T17:04:38;4.00;;;1.02;;
68273;SDS011;55104;47.356;19.448;2023-08-06T17:07:40;3.73;;;0.90;;
68273;SDS011;55104;47.356;19.448;2023-08-06T17:10:45;3.28;;;0.90;;
68273;SDS011;55104;47.356;19.448;2023-08-06T17:13:47;3.38;;;0.98;;
68273;SDS011;55104;47.356;19.448;2023-08-06T17:16:49;3.35;;;0.80;;
68273;SDS011;55104;47.356;19.448;2023-08-06T17:19:51;4.10;;;1.00;;
68273;SDS011;55104;47.356;19.448;2023-08-06T17:22:54;6.27;;;0.90;;
68273;SDS011;55104;47.356;19.448;2023-08-06T17:25:56;3.53;;;0.85;;
68273;SDS011;55104;47.356;19.448;2023-08-06T17:28:58;3.47;;;0.80;;
68273;SDS011;55104;47.356;19.448;2023-08-06T17:32:00;3.00;;;0.80;;
68273;SDS011;55104;47.356;19.448;2023-08-06T17:35:02;3.45;;;0.90;;
68273;SDS011;55104;47.356;19.448;2023-08-06T17:38:04;2.30;;;0.60;;
68273;SDS011;55104;47.356;19.448;2023-08-06T17:41:06;3.20;;;0.90;;
68273;SDS011;55104;47.356;19.448;2023-08-06T17:44:08;2.58;;;0.65;;
68273;SDS011;55104;47.356;19.448;2023-08-06T17:47:10;3.85;;;1.05;;
68273;SDS011;55104;47.356;19.448;2023-08-06T17:50:27;3.28;;;0.98;;
68273;SDS011;55104;47.356;19.448;2023-08-06T17:53:29;4.13;;;1.00;;
68273;SDS011;55104;47.356;19.448;2023-08-06T17:56:31;4.95;;;0.88;;
68273;SDS011;55104;47.356;19.448;2023-08-06T17:59:33;4.68;;;1.15;;
68273;SDS011;55104;47.356;19.448;2023-08-06T18:02:36;4.38;;;1.15;;
68273;SDS011;55104;47.356;19.448;2023-08-06T18:05:38;4.10;;;1.08;;
68273;SDS011;55104;47.356;19.448;2023-08-06T18:08:40;3.37;;;0.80;;
68273;SDS011;55104;47.356;19.448;2023-08-06T18:11:42;6.20;;;1.02;;